KPNC/PNC METAR and TAF weather

Enter ICAO airport designator
Station Type Date Time Source
KPNC METAR 2019/10/22 15:53 UTC NOAA

KPNC 221553Z AUTO 29007KT 270V340 10SM CLR 13/M01 A3018 RMK AO2 SLP216 T01331011


Station Type Date Time Source
KPNC Decoded METAR 2019/10/22 15:53 UTC NOAA

PONCA CITY MUNICIPAL AIRPORT, OK, United States (KPNC) 36-44N 97-06W 308M
Oct 22, 2019 - 11:53 AM EDT / 2019.10.22 1553 UTC
Wind: from the WNW (290 degrees) at 8 MPH (7 KT) (direction variable):0
Visibility: 10 mile(s):0
Sky conditions: clear
Temperature: 55.9 F (13.3 C)
Dew Point: 30.0 F (-1.1 C)
Relative Humidity: 36%
Pressure (altimeter): 30.18 in. Hg (1022 hPa)
ob: KPNC 221553Z AUTO 29007KT 270V340 10SM CLR 13/M01 A3018 RMK AO2 SLP216 T01331011
cycle: 16

Station Type Date Time Source
KPNC TAF 2019/10/22 12:22 UTC NOAA

TAF KPNC 221120Z 2212/2312 28008KT P6SM SKC
FM230000 17007KT P6SM SKC

Example: see airport list